createdAt,value
2017-04-30T07:30:36.401Z,23.90
2017-04-30T07:33:17.964Z,23.80
2017-04-30T07:35:58.853Z,23.60
2017-04-30T07:38:40.208Z,23.50
2017-04-30T07:41:20.327Z,23.30
2017-04-30T07:43:48.954Z,23.10
2017-04-30T07:46:17.240Z,23.00
2017-04-30T07:48:45.538Z,22.90
2017-04-30T07:51:14.997Z,22.90
2017-04-30T07:53:43.291Z,22.90
2017-04-30T07:56:11.594Z,23.10
2017-04-30T07:58:39.907Z,23.20
2017-04-30T08:01:08.220Z,23.10
2017-04-30T08:03:36.508Z,23.20
2017-04-30T08:06:04.796Z,23.30
2017-04-30T08:08:33.101Z,23.30
2017-04-30T08:11:01.401Z,23.30
2017-04-30T08:13:29.683Z,23.30
2017-04-30T08:15:57.974Z,23.20
2017-04-30T08:18:26.573Z,23.10
2017-04-30T08:20:54.862Z,23.10
2017-04-30T08:23:23.143Z,23.10
2017-04-30T08:25:51.430Z,23.00
2017-04-30T08:28:20.451Z,23.00
2017-04-30T08:30:48.740Z,22.90
2017-04-30T08:33:17.039Z,22.80
2017-04-30T08:35:45.337Z,22.90
2017-04-30T08:38:13.633Z,23.00
2017-04-30T08:40:42.682Z,22.90
2017-04-30T08:43:10.971Z,23.00
2017-04-30T08:45:39.258Z,22.90
2017-04-30T08:48:07.546Z,23.20
2017-04-30T08:50:35.828Z,22.80
2017-04-30T08:53:04.110Z,22.80
2017-04-30T08:55:33.144Z,22.60
2017-04-30T08:58:01.444Z,22.60
2017-04-30T09:00:29.755Z,22.70
2017-04-30T09:02:58.809Z,22.70
2017-04-30T09:05:27.122Z,22.80
2017-04-30T09:07:55.423Z,22.80
2017-04-30T09:10:23.727Z,22.90
2017-04-30T09:12:52.025Z,22.90
2017-04-30T09:15:20.322Z,22.90
2017-04-30T09:17:48.627Z,22.80
2017-04-30T09:20:17.660Z,22.80
2017-04-30T09:22:45.956Z,22.80
2017-04-30T09:25:14.257Z,22.80
2017-04-30T09:27:42.562Z,22.70
2017-04-30T09:30:11.591Z,22.70
2017-04-30T09:32:39.884Z,22.80
2017-04-30T09:35:08.182Z,22.80
2017-04-30T09:37:36.471Z,22.80
2017-04-30T09:40:04.765Z,22.70
2017-04-30T09:42:33.072Z,22.70
2017-04-30T09:45:01.362Z,22.60
2017-04-30T09:47:29.751Z,22.60
2017-04-30T09:49:58.050Z,22.60
2017-04-30T09:52:26.350Z,22.60
2017-04-30T09:54:55.390Z,22.60
2017-04-30T09:57:23.688Z,22.60
2017-04-30T09:59:51.991Z,22.60
2017-04-30T10:02:21.038Z,22.50
2017-04-30T10:04:49.327Z,22.60
2017-04-30T10:07:17.607Z,22.60
2017-04-30T10:09:45.907Z,22.60
2017-04-30T10:12:14.190Z,22.60
2017-04-30T10:14:42.481Z,22.60
2017-04-30T10:17:11.518Z,22.60
2017-04-30T10:19:39.807Z,22.60
2017-04-30T10:22:08.098Z,22.60
2017-04-30T10:24:36.384Z,22.60
2017-04-30T10:27:04.674Z,22.60
2017-04-30T10:29:33.711Z,22.50
2017-04-30T10:32:02.002Z,22.50
2017-04-30T10:34:30.286Z,22.60
2017-04-30T10:36:58.589Z,22.50
2017-04-30T10:39:26.886Z,22.50
2017-04-30T10:41:55.928Z,22.50
2017-04-30T10:44:24.214Z,22.60
2017-04-30T10:46:52.505Z,22.60
2017-04-30T10:49:20.790Z,22.70
2017-04-30T10:51:49.081Z,22.60
2017-04-30T10:54:18.111Z,22.60
2017-04-30T10:56:46.401Z,22.60
2017-04-30T10:59:14.687Z,22.60
2017-04-30T11:01:43.269Z,22.70
2017-04-30T11:04:11.555Z,22.80
2017-04-30T11:06:39.879Z,22.70
2017-04-30T11:09:08.915Z,22.60
2017-04-30T11:11:37.207Z,22.60
2017-04-30T11:14:05.499Z,22.60
2017-04-30T11:16:33.789Z,22.70
2017-04-30T11:19:02.081Z,22.70
2017-04-30T11:21:31.121Z,22.60
2017-04-30T11:23:59.423Z,22.60
2017-04-30T11:26:27.762Z,22.60
2017-04-30T11:28:56.049Z,22.70
2017-04-30T11:31:24.332Z,22.60
2017-04-30T11:33:52.635Z,22.60
2017-04-30T11:36:20.928Z,22.60
2017-04-30T11:38:49.218Z,22.60
2017-04-30T11:41:18.250Z,22.60
2017-04-30T11:43:46.542Z,22.70
2017-04-30T11:46:14.842Z,22.70
2017-04-30T11:48:43.134Z,22.70
2017-04-30T11:51:11.441Z,22.70
2017-04-30T11:53:39.723Z,22.80
2017-04-30T11:56:08.013Z,22.80
2017-04-30T11:58:36.305Z,22.80
2017-04-30T12:01:04.593Z,22.80
2017-04-30T12:03:32.877Z,22.80
2017-04-30T12:06:01.157Z,22.90
2017-04-30T12:08:29.446Z,23.00
2017-04-30T12:10:57.740Z,23.00
2017-04-30T12:13:26.789Z,23.00
2017-04-30T12:15:55.097Z,23.10
2017-04-30T12:18:23.387Z,23.00
2017-04-30T12:20:52.440Z,23.00
2017-04-30T12:23:20.728Z,23.00
2017-04-30T12:25:49.022Z,23.10
2017-04-30T12:28:17.318Z,23.10
2017-04-30T12:30:46.366Z,23.20
2017-04-30T12:33:14.650Z,23.30
2017-04-30T12:35:42.946Z,23.40
2017-04-30T12:38:11.237Z,23.40
2017-04-30T12:40:40.273Z,23.40
2017-04-30T12:43:08.565Z,23.50
2017-04-30T12:45:36.854Z,23.50
2017-04-30T12:48:05.149Z,23.50
2017-04-30T12:50:33.439Z,23.50
2017-04-30T12:53:01.746Z,23.50
2017-04-30T12:55:30.045Z,23.60
2017-04-30T12:57:58.338Z,23.60
2017-04-30T13:00:26.642Z,23.60
2017-04-30T13:02:55.091Z,23.50
2017-04-30T13:05:23.386Z,23.60
2017-04-30T13:07:51.669Z,23.60
2017-04-30T13:10:19.967Z,23.70
2017-04-30T13:12:49.010Z,23.70
2017-04-30T13:15:17.304Z,23.70
2017-04-30T13:17:45.603Z,23.70
2017-04-30T13:20:13.906Z,23.70
2017-04-30T13:22:42.933Z,23.70
2017-04-30T13:25:11.550Z,23.80
2017-04-30T13:27:39.843Z,23.80
2017-04-30T13:30:08.132Z,23.90
2017-04-30T13:32:37.183Z,23.90
2017-04-30T13:35:05.480Z,23.90
2017-04-30T13:37:33.771Z,23.90
2017-04-30T13:40:02.075Z,23.90
2017-04-30T13:42:30.372Z,23.90
2017-04-30T13:44:58.661Z,23.90
2017-04-30T13:47:26.976Z,23.90
2017-04-30T13:49:55.278Z,23.90
2017-04-30T13:52:24.669Z,23.90
2017-04-30T13:54:52.965Z,24.20
2017-04-30T13:57:21.263Z,24.40
2017-04-30T13:59:49.563Z,24.50
2017-04-30T14:02:18.205Z,24.60
2017-04-30T14:04:46.502Z,24.70
2017-04-30T14:07:16.409Z,24.80
2017-04-30T14:09:45.032Z,24.80
2017-04-30T14:12:13.338Z,24.80
2017-04-30T14:14:42.385Z,24.80
2017-04-30T14:17:11.000Z,24.90
2017-04-30T14:19:39.297Z,25.00
2017-04-30T14:22:08.334Z,24.80
2017-04-30T14:24:36.981Z,24.80
2017-04-30T14:27:05.278Z,24.90
2017-04-30T14:29:33.572Z,24.80
2017-04-30T14:32:02.166Z,24.70
2017-04-30T14:34:30.468Z,24.70
2017-04-30T14:36:58.775Z,24.70
2017-04-30T14:39:28.118Z,24.70
2017-04-30T14:41:56.418Z,24.80
2017-04-30T14:44:24.726Z,25.30
2017-04-30T14:46:53.337Z,25.10
2017-04-30T14:49:21.633Z,24.90
2017-04-30T14:51:49.922Z,24.60
2017-04-30T14:54:18.537Z,24.50
2017-04-30T14:56:46.838Z,24.30
2017-04-30T14:59:15.878Z,24.20
2017-04-30T15:01:44.483Z,24.20
2017-04-30T15:04:12.782Z,24.30
2017-04-30T15:06:41.135Z,24.20
2017-04-30T15:09:09.826Z,24.00
2017-04-30T15:11:38.127Z,24.00
2017-04-30T15:14:06.434Z,24.00
2017-04-30T15:16:35.042Z,23.90
2017-04-30T15:19:03.328Z,24.00
2017-04-30T15:21:31.725Z,24.00
2017-04-30T15:24:00.326Z,24.10
2017-04-30T15:26:28.615Z,24.20
2017-04-30T15:28:57.648Z,24.20
2017-04-30T15:31:26.226Z,24.20
2017-04-30T15:33:54.520Z,24.20
2017-04-30T15:36:22.822Z,24.10
2017-04-30T15:38:54.684Z,24.10
2017-04-30T15:41:22.975Z,24.10
2017-04-30T15:43:51.258Z,24.10
2017-04-30T15:46:19.916Z,24.10
2017-04-30T15:48:49.223Z,24.10
2017-04-30T15:51:17.520Z,24.20
2017-04-30T15:53:46.180Z,24.10
2017-04-30T15:56:14.470Z,24.10
2017-04-30T15:58:42.760Z,24.10
2017-04-30T16:01:11.347Z,24.10
2017-04-30T16:03:39.649Z,24.00
2017-04-30T16:06:07.966Z,24.00
2017-04-30T16:08:36.557Z,24.10
2017-04-30T16:11:04.835Z,24.10
2017-04-30T16:13:33.125Z,24.10
2017-04-30T16:16:01.806Z,24.20
2017-04-30T16:18:30.088Z,24.10
2017-04-30T16:20:58.383Z,24.10
2017-04-30T16:23:27.045Z,24.10
2017-04-30T16:25:55.378Z,24.10
2017-04-30T16:28:23.668Z,24.10
2017-04-30T16:30:52.255Z,24.00
2017-04-30T16:33:20.545Z,24.00
2017-04-30T16:35:48.830Z,24.00
2017-04-30T16:38:17.432Z,24.00
2017-04-30T16:40:45.723Z,24.00
2017-04-30T16:43:14.012Z,24.00
2017-04-30T16:45:43.382Z,24.00
2017-04-30T16:48:11.669Z,24.00
2017-04-30T16:50:39.980Z,24.00
2017-04-30T16:53:08.629Z,24.00
2017-04-30T16:55:36.911Z,24.00
2017-04-30T16:58:05.203Z,24.00
2017-04-30T17:00:33.856Z,23.90
2017-04-30T17:03:02.143Z,23.90
2017-04-30T17:05:30.438Z,23.90
2017-04-30T17:07:59.020Z,23.90
2017-04-30T17:10:27.330Z,23.90
2017-04-30T17:12:55.622Z,23.70
2017-04-30T17:15:24.221Z,23.70
2017-04-30T17:17:52.521Z,23.70
2017-04-30T17:20:20.813Z,23.70
2017-04-30T17:22:49.483Z,23.90
2017-04-30T17:25:17.776Z,24.00
2017-04-30T17:27:46.238Z,23.90
2017-04-30T17:30:14.933Z,23.90
2017-04-30T17:32:43.316Z,23.90
2017-04-30T17:35:11.612Z,23.90
2017-04-30T17:37:40.989Z,23.90
2017-04-30T17:40:09.277Z,23.90
2017-04-30T17:42:37.556Z,23.90
2017-04-30T17:45:06.187Z,24.00
2017-04-30T17:47:34.478Z,23.90
2017-04-30T17:50:02.782Z,24.10
2017-04-30T17:52:31.476Z,24.10
2017-04-30T17:54:59.780Z,24.20
2017-04-30T17:57:28.822Z,24.20
2017-04-30T17:59:57.428Z,24.20
2017-04-30T18:02:25.707Z,24.20
2017-04-30T18:04:53.997Z,24.20
2017-04-30T18:07:22.667Z,24.10
2017-04-30T18:09:50.945Z,24.10
2017-04-30T18:12:19.249Z,24.10
2017-04-30T18:14:48.625Z,24.10
2017-04-30T18:17:16.914Z,24.10
2017-04-30T18:19:45.206Z,24.10
2017-04-30T18:22:14.563Z,24.00
2017-04-30T18:24:42.891Z,24.00
2017-04-30T18:27:11.984Z,24.00
2017-04-30T18:29:41.359Z,23.90
2017-04-30T18:32:09.663Z,23.80
2017-04-30T18:34:38.700Z,23.70
2017-04-30T18:37:07.312Z,23.90
2017-04-30T18:39:35.620Z,23.80
2017-04-30T18:42:04.674Z,23.70
2017-04-30T18:44:33.388Z,23.60
2017-04-30T18:47:04.898Z,23.60
2017-04-30T18:49:33.503Z,23.50
2017-04-30T18:52:01.805Z,23.50
2017-04-30T18:54:30.103Z,23.50
2017-04-30T18:56:59.482Z,23.40
2017-04-30T18:59:27.787Z,23.40
2017-04-30T19:01:56.131Z,23.40
2017-04-30T19:04:24.739Z,23.40
2017-04-30T19:06:53.769Z,23.40
2017-04-30T19:09:22.055Z,23.40
2017-04-30T19:11:50.651Z,23.30
2017-04-30T19:14:18.958Z,23.40
2017-04-30T19:16:47.265Z,23.40
2017-04-30T19:19:16.625Z,23.30
2017-04-30T19:21:44.940Z,23.30
2017-04-30T19:24:13.993Z,23.30
2017-04-30T19:26:42.612Z,23.20
2017-04-30T19:29:11.663Z,23.20
2017-04-30T19:31:39.976Z,23.20
2017-04-30T19:34:08.635Z,23.20
2017-04-30T19:36:36.930Z,23.20
2017-04-30T19:39:05.229Z,23.20
2017-04-30T19:41:34.584Z,23.10
2017-04-30T19:44:02.888Z,23.10
2017-04-30T19:46:31.206Z,23.10
2017-04-30T19:48:59.837Z,23.10
2017-04-30T19:51:28.148Z,23.10
2017-04-30T19:54:01.003Z,23.10
2017-04-30T19:56:29.308Z,23.00
2017-04-30T19:58:58.360Z,23.00
2017-04-30T20:01:27.073Z,23.00
2017-04-30T20:03:55.359Z,23.00
2017-04-30T20:06:23.657Z,23.00
2017-04-30T20:08:52.994Z,22.90
2017-04-30T20:11:21.309Z,23.00
2017-04-30T20:13:49.605Z,23.00
2017-04-30T20:16:18.993Z,22.90
2017-04-30T20:18:47.298Z,23.00
2017-04-30T20:21:15.594Z,23.00
2017-04-30T20:23:44.217Z,22.90
2017-04-30T20:26:12.518Z,23.00
2017-04-30T20:28:41.545Z,23.00
2017-04-30T20:31:10.151Z,23.00
2017-04-30T20:33:38.453Z,23.00
2017-04-30T20:36:06.771Z,23.00
2017-04-30T20:38:36.131Z,22.90
2017-04-30T20:41:04.428Z,23.00
2017-04-30T20:43:32.735Z,23.00
2017-04-30T20:46:01.338Z,23.00
2017-04-30T20:48:29.634Z,23.00
2017-04-30T20:50:57.949Z,23.00
2017-04-30T20:53:26.616Z,23.00
2017-04-30T20:55:54.920Z,23.00
2017-04-30T20:58:23.964Z,23.00
2017-04-30T21:00:52.667Z,23.10
2017-04-30T21:03:20.959Z,23.10
2017-04-30T21:05:49.245Z,23.10
2017-04-30T21:08:17.854Z,23.10
2017-04-30T21:10:46.152Z,23.10
2017-04-30T21:13:14.445Z,23.10
2017-04-30T21:15:43.050Z,23.10
2017-04-30T21:18:11.349Z,23.10
2017-04-30T21:20:39.664Z,23.10
2017-04-30T21:23:08.287Z,23.10
2017-04-30T21:25:36.588Z,23.10
2017-04-30T21:28:04.891Z,23.10
2017-04-30T21:30:33.546Z,23.10
2017-04-30T21:33:01.848Z,23.20
2017-04-30T21:35:30.889Z,23.20
2017-04-30T21:37:59.590Z,23.20
2017-04-30T21:40:27.903Z,23.20
2017-04-30T21:42:56.949Z,23.10
2017-04-30T21:45:25.549Z,23.10
2017-04-30T21:47:53.851Z,23.20
2017-04-30T21:50:22.899Z,23.10
2017-04-30T21:52:51.501Z,23.10
2017-04-30T21:55:19.801Z,23.20
2017-04-30T21:57:48.126Z,23.10
2017-04-30T22:00:16.750Z,23.10
2017-04-30T22:02:45.051Z,23.10
2017-04-30T22:05:14.083Z,23.20
2017-04-30T22:07:42.696Z,23.20
2017-04-30T22:10:10.984Z,23.20
2017-04-30T22:12:39.278Z,23.10
2017-04-30T22:15:07.948Z,23.20
2017-04-30T22:17:36.259Z,23.20
2017-04-30T22:20:05.302Z,23.10
2017-04-30T22:22:33.999Z,23.10
2017-04-30T22:25:02.290Z,23.10
2017-04-30T22:27:30.581Z,23.10
2017-04-30T22:29:59.958Z,23.20
2017-04-30T22:32:28.260Z,23.20
2017-04-30T22:34:56.560Z,23.20
2017-04-30T22:37:25.164Z,23.20
2017-04-30T22:39:53.459Z,23.10
2017-04-30T22:42:21.760Z,23.10
2017-04-30T22:44:50.365Z,23.10
2017-04-30T22:47:19.395Z,23.10
2017-04-30T22:49:47.686Z,23.10
2017-04-30T22:52:16.294Z,23.20
2017-04-30T22:54:44.585Z,23.20
2017-04-30T22:57:12.880Z,23.20
2017-04-30T22:59:42.224Z,23.10
2017-04-30T23:02:10.511Z,23.20
2017-04-30T23:04:38.807Z,23.20
2017-04-30T23:07:07.494Z,23.20
2017-04-30T23:09:35.786Z,23.10
2017-04-30T23:12:04.077Z,23.10
2017-04-30T23:14:36.447Z,23.10
2017-04-30T23:17:05.482Z,23.20
2017-04-30T23:19:33.782Z,23.20
2017-04-30T23:22:02.381Z,23.20
2017-04-30T23:24:30.682Z,23.20
2017-04-30T23:26:59.722Z,23.20
2017-04-30T23:29:28.331Z,23.20
2017-04-30T23:31:56.625Z,23.20
2017-04-30T23:34:24.909Z,23.20
2017-04-30T23:36:53.572Z,23.20
2017-04-30T23:39:21.867Z,23.20
2017-04-30T23:41:50.159Z,23.30
2017-04-30T23:44:19.496Z,23.20
2017-04-30T23:46:47.794Z,23.20
2017-04-30T23:49:16.092Z,23.20
2017-04-30T23:51:44.779Z,23.10
2017-04-30T23:54:13.072Z,23.20
2017-04-30T23:56:41.374Z,23.10
2017-04-30T23:59:09.996Z,23.10
